Nisbet, Pennsylvania
Current Conditions -  °F | °C
As of 4:54 PM on Wednesday 22 Oct 2014 (Local Time) from KIPT Reporting Station
Overcast Overcast  
Wind Chill: 52°   Ceiling: 2100
Heat Index: 52°   Visibility: 10mi
Dew Point: 43°   Wind: 8mph
Humidity: 71%   Direction: 290°WNW
Pressure: 30.04"   Gusts: NA
Location:  41.22°N, 77.11°W
Report Text: KIPT 222054Z 29007KT 10SM OVC021 11/06 A3004 RMK AO2 SLP172 T01110061 55000
Loading
Personal Weather Stations






























Interactive Weather Map
Tropical Storm Tracking
New forecast layout! Learn more

10-Day Weather Forecast

Advertisements
Track Severe Weather on mobile